Time;durP1;ratioP1;P1;durP2;ratioP2;P2;SDS_P1;SDS_P2;PMS_P1;PMS_P2;Temp;Humidity;BMP_temperature;BMP_pressure;BME280_temperature;BME280_humidity;BME280_pressure;Samples;Min_cycle;Max_cycle;Signal;HPM_P1;HPM_P2
2022/06/06 00:01:53;;;;;;;17.50;12.60;;;15.20;99.90;;;;;;4970601;28;20209;-81
2022/06/06 00:04:22;;;;;;;15.87;12.77;;;15.20;99.90;;;;;;4952245;29;20205;-83
2022/06/06 00:06:51;;;;;;;14.37;11.57;;;15.20;99.90;;;;;;4951351;29;20233;-80
2022/06/06 00:09:18;;;;;;;16.70;13.73;;;15.20;99.90;;;;;;4950953;29;20865;-81
2022/06/06 00:11:47;;;;;;;20.20;15.00;;;15.10;99.90;;;;;;4961960;28;20294;-82
2022/06/06 00:14:16;;;;;;;23.33;17.47;;;15.10;99.90;;;;;;4970618;28;20319;-80
2022/06/06 00:16:43;;;;;;;26.30;18.53;;;15.10;99.90;;;;;;4958125;28;20288;-80
2022/06/06 00:19:10;;;;;;;22.93;16.23;;;15.10;99.90;;;;;;4953149;28;20297;-82
2022/06/06 00:21:38;;;;;;;18.73;12.30;;;15.10;99.90;;;;;;4971882;28;20211;-81
2022/06/06 00:24:06;;;;;;;21.13;13.40;;;15.10;99.90;;;;;;4971110;28;20288;-81
2022/06/06 00:26:34;;;;;;;22.93;15.03;;;15.00;99.90;;;;;;4970873;28;20505;-81
2022/06/06 00:29:03;;;;;;;28.63;16.97;;;15.00;99.90;;;;;;4980978;28;20235;-81
2022/06/06 00:37:01;;;;;;;24.07;16.77;;;14.90;99.90;;;;;;4969769;28;20251;-83
2022/06/06 00:39:29;;;;;;;26.37;17.40;;;14.90;99.90;;;;;;4966979;28;20235;-82
2022/06/06 00:41:57;;;;;;;26.00;17.20;;;14.80;99.90;;;;;;4949965;29;20208;-83
2022/06/06 00:44:30;;;;;;;20.97;13.87;;;14.80;99.90;;;;;;4962527;28;20271;-82
2022/06/06 00:47:04;;;;;;;21.87;13.60;;;14.80;99.90;;;;;;4971185;28;20293;-82
2022/06/06 00:49:37;;;;;;;19.70;11.80;;;14.80;99.90;;;;;;4952199;29;20197;-81
2022/06/06 00:52:09;;;;;;;20.03;11.97;;;14.70;99.90;;;;;;4952124;29;20906;-83
2022/06/06 00:54:37;;;;;;;24.43;12.70;;;14.70;99.90;;;;;;4951269;29;20754;-82
2022/06/06 00:57:09;;;;;;;16.53;12.70;;;14.70;99.90;;;;;;4964953;28;20223;-82
2022/06/06 00:59:39;;;;;;;22.13;13.03;;;14.70;99.90;;;;;;4971657;28;20208;-82
2022/06/06 01:02:09;;;;;;;22.40;13.93;;;14.70;99.90;;;;;;4970898;28;20209;-82
2022/06/06 01:04:38;;;;;;;22.87;16.23;;;14.70;99.90;;;;;;4968599;28;20926;-84
2022/06/06 01:07:06;;;;;;;20.80;11.73;;;14.70;99.90;;;;;;4951471;28;20601;-82
2022/06/06 01:09:33;;;;;;;20.17;11.77;;;14.70;99.90;;;;;;4951776;29;20205;-83
2022/06/06 01:12:03;;;;;;;19.70;11.90;;;14.60;99.90;;;;;;4951690;29;20206;-81
2022/06/06 01:14:34;;;;;;;26.67;13.97;;;14.60;99.90;;;;;;4968919;28;20256;-82
2022/06/06 01:17:07;;;;;;;20.47;13.73;;;14.60;99.90;;;;;;4970205;28;20209;-82
2022/06/06 01:19:50;;;;;;;24.13;11.80;;;14.60;99.90;;;;;;4970509;28;20608;-84
2022/06/06 01:23:13;;;;;;;21.93;12.93;;;14.60;99.90;;;;;;4980791;28;20525;-81
2022/06/06 01:26:04;;;;;;;19.17;11.23;;;14.60;99.90;;;;;;4974015;23;20724;-81
2022/06/06 01:28:49;;;;;;;22.37;12.37;;;14.60;99.90;;;;;;4930016;29;20244;-83
2022/06/06 01:31:21;;;;;;;21.10;12.23;;;14.70;99.90;;;;;;4932562;29;20212;-82
2022/06/06 01:33:51;;;;;;;22.93;11.00;;;14.60;99.90;;;;;;4951182;29;20239;-81
2022/06/06 01:36:19;;;;;;;20.90;12.47;;;14.60;99.90;;;;;;4950077;29;20207;-83
2022/06/06 01:38:46;;;;;;;21.90;11.90;;;14.60;99.90;;;;;;4950331;29;20202;-83
2022/06/06 01:41:18;;;;;;;30.53;13.73;;;14.60;99.90;;;;;;4950735;29;20211;-83
2022/06/06 01:43:51;;;;;;;24.57;13.73;;;14.60;99.90;;;;;;4950387;28;20205;-82
2022/06/06 01:46:22;;;;;;;23.33;13.90;;;14.60;99.90;;;;;;4950167;29;20215;-82
2022/06/06 01:48:50;;;;;;;20.97;12.40;;;14.60;99.90;;;;;;4949638;28;20211;-83
2022/06/06 01:51:20;;;;;;;22.23;12.60;;;14.50;99.90;;;;;;4949212;29;20292;-82
2022/06/06 01:53:47;;;;;;;25.70;12.20;;;14.60;99.90;;;;;;4949982;29;20225;-82
2022/06/06 01:56:18;;;;;;;19.47;11.67;;;14.50;99.90;;;;;;4933997;28;20202;-81
2022/06/06 01:58:45;;;;;;;26.60;12.87;;;14.50;99.90;;;;;;4930667;29;20206;-83
2022/06/06 02:01:13;;;;;;;16.37;10.67;;;14.60;99.90;;;;;;4950557;28;20216;-82
2022/06/06 02:03:41;;;;;;;20.53;11.33;;;14.60;99.90;;;;;;4950739;29;20287;-82
2022/06/06 02:06:08;;;;;;;16.57;11.47;;;14.60;99.90;;;;;;4943286;29;20333;-81
2022/06/06 02:08:35;;;;;;;17.57;10.60;;;14.60;99.90;;;;;;4932179;29;20431;-83
2022/06/06 02:11:02;;;;;;;22.33;11.53;;;14.50;99.90;;;;;;4932145;28;20237;-82
2022/06/06 02:13:29;;;;;;;24.27;11.40;;;14.50;99.90;;;;;;4930863;29;20230;-82
2022/06/06 02:15:56;;;;;;;21.17;10.87;;;14.60;99.90;;;;;;4930857;29;20292;-80
2022/06/06 02:18:25;;;;;;;21.57;12.00;;;14.60;99.90;;;;;;4939334;28;20285;-84
2022/06/06 02:20:52;;;;;;;20.10;11.13;;;14.60;99.90;;;;;;4950110;29;20301;-81
2022/06/06 02:23:19;;;;;;;23.77;11.67;;;14.50;99.90;;;;;;4950219;29;20220;-81
2022/06/06 02:25:46;;;;;;;19.47;11.23;;;14.60;99.90;;;;;;4949550;28;21023;-80
2022/06/06 02:28:14;;;;;;;26.23;12.50;;;14.60;99.90;;;;;;4940875;29;20274;-80
2022/06/06 02:30:40;;;;;;;18.07;12.00;;;14.50;99.90;;;;;;4931004;29;20202;-82
2022/06/06 02:33:08;;;;;;;19.83;11.93;;;14.50;99.90;;;;;;4923225;29;20713;-83
2022/06/06 02:35:40;;;;;;;21.30;11.77;;;14.50;99.90;;;;;;4930991;29;20206;-81
2022/06/06 02:38:08;;;;;;;20.43;12.90;;;14.50;99.90;;;;;;4931278;29;20546;-80
2022/06/06 02:40:35;;;;;;;22.37;12.93;;;14.50;99.90;;;;;;4929559;29;20685;-82
2022/06/06 02:43:02;;;;;;;21.33;13.23;;;14.50;99.90;;;;;;4939166;29;20225;-83
2022/06/06 02:45:29;;;;;;;20.37;12.43;;;14.50;99.90;;;;;;4949332;29;20205;-82
2022/06/06 02:47:58;;;;;;;20.93;12.10;;;14.50;99.90;;;;;;4949461;29;20209;-81
2022/06/06 02:50:28;;;;;;;22.50;12.17;;;14.50;99.90;;;;;;4949522;29;20219;-80
2022/06/06 02:52:56;;;;;;;17.93;10.77;;;14.40;99.90;;;;;;4941109;29;20615;-82
2022/06/06 02:55:23;;;;;;;16.93;10.43;;;14.40;99.90;;;;;;4929630;29;20205;-81
2022/06/06 02:57:52;;;;;;;15.67;10.97;;;14.40;99.90;;;;;;4930125;29;20209;-83
2022/06/06 03:00:24;;;;;;;17.57;11.13;;;14.40;99.90;;;;;;4930877;28;20206;-83
2022/06/06 03:02:51;;;;;;;15.93;10.30;;;14.40;99.90;;;;;;4929402;29;20260;-83
2022/06/06 03:05:18;;;;;;;17.07;10.47;;;14.40;99.90;;;;;;4929992;29;20233;-80
2022/06/06 03:08:00;;;;;;;18.10;12.07;;;14.40;99.90;;;;;;4929305;29;20217;-80
2022/06/06 03:10:40;;;;;;;15.17;9.83;;;14.40;99.90;;;;;;4932848;28;20241;-81
2022/06/06 03:13:22;;;;;;;15.30;9.73;;;14.40;99.90;;;;;;4948044;29;20189;-83
2022/06/06 03:21:52;;;;;;;17.73;11.03;;;14.30;99.90;;;;;;4949734;29;20328;-85
2022/06/06 03:24:33;;;;;;;16.60;10.83;;;14.40;99.90;;;;;;4948704;29;20203;-84
2022/06/06 03:27:16;;;;;;;20.87;12.30;;;14.40;99.90;;;;;;4947932;29;20400;-83
2022/06/06 03:30:02;;;;;;;29.20;14.60;;;14.40;99.90;;;;;;4931761;29;20268;-84
2022/06/06 03:32:42;;;;;;;26.50;13.53;;;14.40;99.90;;;;;;4930511;29;20216;-83
2022/06/06 03:35:19;;;;;;;24.80;14.27;;;14.40;99.90;;;;;;4930267;29;20233;-80
2022/06/06 03:37:52;;;;;;;22.07;13.53;;;14.40;99.90;;;;;;4930848;28;20233;-84
2022/06/06 03:40:26;;;;;;;19.70;11.30;;;14.40;99.90;;;;;;4929561;29;20872;-83
2022/06/06 03:43:01;;;;;;;22.90;13.27;;;14.40;99.90;;;;;;4930535;29;20513;-83
2022/06/06 03:45:38;;;;;;;22.17;14.17;;;14.40;99.90;;;;;;4929789;29;20288;-81
2022/06/06 03:48:31;;;;;;;26.33;13.93;;;14.40;99.90;;;;;;4929568;29;20602;-80
2022/06/06 03:51:06;;;;;;;26.30;13.87;;;14.50;99.90;;;;;;4943302;28;20296;-83
2022/06/06 03:53:43;;;;;;;27.03;14.73;;;14.50;99.90;;;;;;4948877;29;20217;-83
2022/06/06 03:56:22;;;;;;;24.77;14.23;;;14.50;99.90;;;;;;4931688;29;20216;-84
2022/06/06 03:58:53;;;;;;;25.30;15.30;;;14.50;99.90;;;;;;4930290;29;20202;-81
2022/06/06 04:01:22;;;;;;;20.47;12.70;;;14.50;99.90;;;;;;4929656;29;20210;-82
2022/06/06 04:03:50;;;;;;;17.87;10.37;;;14.50;99.90;;;;;;4937315;28;20205;-82
2022/06/06 04:06:18;;;;;;;17.90;10.33;;;14.50;99.90;;;;;;4948126;29;20209;-82
2022/06/06 04:08:45;;;;;;;20.07;10.80;;;14.50;99.90;;;;;;4948381;29;20569;-80
2022/06/06 04:11:27;;;;;;;16.93;10.90;;;14.40;99.90;;;;;;4947474;29;20489;-81
2022/06/06 04:14:04;;;;;;;21.47;10.83;;;14.50;99.90;;;;;;4950661;28;20328;-84
2022/06/06 04:16:47;;;;;;;16.93;10.60;;;14.40;99.90;;;;;;4951764;29;20205;-82
2022/06/06 04:19:22;;;;;;;14.03;10.13;;;14.50;99.90;;;;;;4951542;28;20540;-81
2022/06/06 04:22:02;;;;;;;17.90;10.83;;;14.50;99.90;;;;;;4951830;29;20600;-82
2022/06/06 04:24:44;;;;;;;18.73;10.97;;;14.50;99.90;;;;;;4951980;28;20219;-81
2022/06/06 04:27:21;;;;;;;22.37;10.87;;;14.50;99.90;;;;;;4950198;29;20217;-80
2022/06/06 04:29:58;;;;;;;17.97;11.30;;;14.50;99.90;;;;;;4950800;28;20225;-82
2022/06/06 04:32:40;;;;;;;13.90;9.90;;;14.50;99.90;;;;;;4951538;29;20194;-82
2022/06/06 04:35:18;;;;;;;13.77;9.80;;;14.50;99.90;;;;;;4951409;29;20626;-81
2022/06/06 04:37:50;;;;;;;29.00;13.07;;;14.50;99.90;;;;;;4950927;29;20852;-82
2022/06/06 04:40:35;;;;;;;18.80;10.93;;;14.50;99.90;;;;;;4950794;29;20261;-81
2022/06/06 04:43:09;;;;;;;18.17;11.60;;;14.50;99.90;;;;;;4952001;29;20205;-81
2022/06/06 04:45:44;;;;;;;19.00;10.10;;;14.60;99.90;;;;;;4952603;28;20189;-81
2022/06/06 04:48:11;;;;;;;17.17;9.93;;;14.60;99.90;;;;;;4951003;29;20216;-80
2022/06/06 04:50:43;;;;;;;17.93;9.37;;;14.60;99.90;;;;;;4945248;28;20217;-82
2022/06/06 04:53:14;;;;;;;18.37;10.90;;;14.60;99.90;;;;;;4932148;29;20202;-83
2022/06/06 04:55:43;;;;;;;18.93;10.17;;;14.60;99.90;;;;;;4938711;28;20228;-82
2022/06/06 04:58:12;;;;;;;24.90;11.37;;;14.60;99.90;;;;;;4948712;29;20216;-81
2022/06/06 05:00:42;;;;;;;23.77;10.57;;;14.70;99.90;;;;;;4950011;29;20201;-82
2022/06/06 05:03:09;;;;;;;16.80;10.00;;;14.70;99.90;;;;;;4937906;28;20264;-84
2022/06/06 05:05:43;;;;;;;14.50;9.80;;;14.70;99.90;;;;;;4937521;29;20516;-82
2022/06/06 05:08:23;;;;;;;16.00;9.73;;;14.70;99.90;;;;;;4950171;29;20209;-82
2022/06/06 05:11:01;;;;;;;17.37;10.13;;;14.70;99.90;;;;;;4950437;29;20194;-80
2022/06/06 05:13:50;;;;;;;23.20;10.10;;;14.70;99.90;;;;;;4949876;29;20723;-82
2022/06/06 05:16:46;;;;;;;19.47;10.57;;;14.80;99.90;;;;;;4918824;28;20210;-81
2022/06/06 05:19:37;;;;;;;16.80;9.57;;;14.80;99.90;;;;;;4931432;28;20288;-82
2022/06/06 05:22:21;;;;;;;15.33;9.63;;;14.90;99.90;;;;;;4931432;29;20206;-84
2022/06/06 05:25:00;;;;;;;16.03;7.90;;;14.90;99.90;;;;;;4931163;29;20583;-83
2022/06/06 05:27:43;;;;;;;13.97;8.70;;;15.00;99.90;;;;;;4914777;29;20214;-82
2022/06/06 05:30:17;;;;;;;13.80;9.57;;;15.20;99.90;;;;;;4933123;28;20688;-80
2022/06/06 05:33:12;;;;;;;17.60;10.27;;;15.40;99.90;;;;;;4951159;29;20204;-82
2022/06/06 05:36:07;;;;;;;20.73;12.00;;;15.40;99.90;;;;;;4957538;28;20485;-82
2022/06/06 05:38:54;;;;;;;16.97;11.37;;;15.40;99.90;;;;;;4969894;28;20219;-84
2022/06/06 05:41:32;;;;;;;19.43;11.33;;;15.40;99.90;;;;;;4952773;28;20622;-83
2022/06/06 05:44:06;;;;;;;24.23;11.80;;;15.40;99.90;;;;;;4948797;29;20586;-83
2022/06/06 05:46:42;;;;;;;20.63;12.43;;;15.50;99.90;;;;;;4949580;29;20220;-82
2022/06/06 05:49:35;;;;;;;28.20;14.07;;;15.50;99.90;;;;;;4949799;29;20204;-84
2022/06/06 05:52:16;;;;;;;21.27;11.47;;;15.50;99.90;;;;;;4930646;29;20278;-81
2022/06/06 05:54:58;;;;;;;18.93;9.73;;;15.40;99.90;;;;;;4930399;29;20218;-81
2022/06/06 05:57:47;;;;;;;14.07;6.33;;;15.40;99.90;;;;;;4946271;28;20612;-80
2022/06/06 06:00:19;;;;;;;9.60;5.23;;;15.50;99.90;;;;;;4949569;29;20190;-80
2022/06/06 06:03:30;;;;;;;13.70;5.30;;;15.40;99.90;;;;;;4949958;28;20199;-82
2022/06/06 06:06:11;;;;;;;10.37;6.10;;;15.50;99.90;;;;;;4950388;29;20372;-82
2022/06/06 06:08:52;;;;;;;14.30;7.43;;;15.50;99.90;;;;;;4936450;28;20209;-83
2022/06/06 06:11:27;;;;;;;19.03;7.23;;;15.50;99.90;;;;;;4932121;29;20205;-84
2022/06/06 06:14:10;;;;;;;13.00;7.27;;;15.50;99.90;;;;;;4943221;29;20516;-82
2022/06/06 06:16:42;;;;;;;16.23;6.20;;;15.50;99.90;;;;;;4949902;29;20277;-82
2022/06/06 06:19:13;;;;;;;17.40;5.88;;;15.50;99.90;;;;;;4949670;29;20883;-85
2022/06/06 06:21:46;;;;;;;12.17;5.93;;;15.50;99.90;;;;;;4930071;29;20232;-82
2022/06/06 06:24:27;;;;;;;18.20;5.97;;;15.70;99.90;;;;;;4922306;29;20200;-84
2022/06/06 06:26:57;;;;;;;15.90;5.63;;;16.00;99.90;;;;;;4931680;29;20244;-85
2022/06/06 06:29:24;;;;;;;10.13;4.50;;;16.20;99.90;;;;;;4930819;29;20222;-83
2022/06/06 06:32:27;;;;;;;10.97;4.70;;;16.30;99.90;;;;;;4928938;29;20293;-82
2022/06/06 06:35:07;;;;;;;7.32;4.15;;;16.30;99.90;;;;;;4950697;28;20242;-85
2022/06/06 06:37:53;;;;;;;8.90;4.13;;;16.30;99.90;;;;;;4964294;28;20236;-81
2022/06/06 06:40:32;;;;;;;9.45;4.22;;;16.30;99.90;;;;;;4950978;29;20743;-86
2022/06/06 06:43:08;;;;;;;11.00;4.32;;;16.20;99.90;;;;;;4952817;29;20346;-86
2022/06/06 06:45:38;;;;;;;7.93;3.85;;;16.10;99.90;;;;;;4951258;29;20498;-88
2022/06/06 06:48:11;;;;;;;8.95;4.25;;;16.10;99.90;;;;;;4952422;29;20581;-84
2022/06/06 06:50:48;;;;;;;8.57;4.27;;;16.00;99.90;;;;;;4951685;29;20781;-81
2022/06/06 06:53:36;;;;;;;12.10;4.90;;;16.00;99.90;;;;;;4952037;28;20586;-83
2022/06/06 06:56:09;;;;;;;13.32;4.68;;;16.10;99.90;;;;;;4952248;29;20308;-83
2022/06/06 06:58:52;;;;;;;7.40;3.30;;;16.50;99.90;;;;;;4953928;29;20273;-84
2022/06/06 07:01:32;;;;;;;9.25;3.83;;;16.70;99.90;;;;;;4960495;28;20201;-83
2022/06/06 07:10:05;;;;;;;9.48;3.90;;;17.10;99.90;;;;;;4979330;28;20208;-85
2022/06/06 07:12:45;;;;;;;9.48;3.85;;;17.60;99.90;;;;;;4979928;28;20200;-84
2022/06/06 07:15:22;;;;;;;8.57;4.13;;;18.10;99.90;;;;;;4978454;28;20308;-87
2022/06/06 07:17:54;;;;;;;6.80;3.28;;;18.70;99.90;;;;;;4973765;28;20618;-89
2022/06/06 07:20:22;;;;;;;9.38;3.25;;;18.70;99.90;;;;;;4950887;29;20805;-89
2022/06/06 07:23:02;;;;;;;7.72;3.75;;;18.70;99.90;;;;;;4951666;29;20300;-87
2022/06/06 07:25:34;;;;;;;11.02;3.88;;;18.90;99.90;;;;;;4952544;28;20386;-86
2022/06/06 07:28:01;;;;;;;12.68;3.55;;;19.00;99.90;;;;;;4941318;23;20332;-83
2022/06/06 07:30:33;;;;;;;9.27;4.40;;;19.10;99.90;;;;;;4933287;29;20493;-90
2022/06/06 07:33:18;;;;;;;7.25;3.20;;;18.90;99.90;;;;;;4952069;29;20205;-87
2022/06/06 07:35:53;;;;;;;12.70;3.40;;;18.90;99.90;;;;;;4931780;29;20217;-84
2022/06/06 07:38:33;;;;;;;9.70;3.83;;;18.70;99.90;;;;;;4932266;29;20290;-84
2022/06/06 07:41:17;;;;;;;11.88;3.35;;;18.40;99.90;;;;;;4932903;29;20658;-84
2022/06/06 07:43:57;;;;;;;6.38;2.13;;;18.40;99.90;;;;;;4941061;28;20246;-88
2022/06/06 07:46:33;;;;;;;7.05;2.55;;;18.20;99.90;;;;;;4949741;29;20209;-86
2022/06/06 07:49:05;;;;;;;9.40;2.20;;;18.30;99.90;;;;;;4955810;29;20221;-87
2022/06/06 07:51:43;;;;;;;10.68;2.70;;;18.50;99.90;;;;;;4968423;28;20683;-87
2022/06/06 07:54:23;;;;;;;7.70;2.90;;;18.50;99.90;;;;;;4975464;28;20204;-92
2022/06/06 07:56:59;;;;;;;7.75;2.70;;;18.40;99.90;;;;;;4960240;28;20201;-86
2022/06/06 07:59:52;;;;;;;9.45;2.72;;;18.40;99.90;;;;;;4956012;29;20193;-89
2022/06/06 08:02:44;;;;;;;10.32;2.53;;;18.40;99.90;;;;;;4954819;29;20202;-88
2022/06/06 08:05:28;;;;;;;8.30;2.78;;;18.50;99.90;;;;;;4952430;28;20205;-93
2022/06/06 08:08:04;;;;;;;8.23;2.25;;;19.00;99.90;;;;;;4976776;23;20244;-87
2022/06/06 08:10:39;;;;;;;5.63;1.85;;;19.30;99.90;;;;;;4973305;28;20299;-87
2022/06/06 08:13:21;;;;;;;7.45;2.30;;;19.20;99.90;;;;;;4973323;28;20204;-84
2022/06/06 08:15:59;;;;;;;9.80;2.70;;;18.90;99.90;;;;;;4972691;28;20319;-85
2022/06/06 08:18:59;;;;;;;9.75;2.10;;;18.80;99.90;;;;;;4972334;23;20329;-89
2022/06/06 08:21:33;;;;;;;13.05;2.50;;;19.00;99.90;;;;;;4957491;28;20212;-88
2022/06/06 08:24:03;;;;;;;6.50;2.20;;;19.10;99.90;;;;;;4973639;28;20286;-88
2022/06/06 08:26:31;;;;;;;11.43;2.75;;;19.20;99.90;;;;;;4972211;28;20587;-87
2022/06/06 08:29:02;;;;;;;9.68;2.60;;;19.40;99.90;;;;;;4972909;28;20223;-84
2022/06/06 08:31:29;;;;;;;5.35;2.47;;;19.60;99.90;;;;;;4964503;28;20221;-89
2022/06/06 08:33:56;;;;;;;9.82;2.50;;;19.80;99.90;;;;;;4956147;29;20284;-96
2022/06/06 08:36:35;;;;;;;7.05;2.47;;;19.90;99.90;;;;;;4953682;29;20229;-86
2022/06/06 08:39:11;;;;;;;8.25;3.22;;;20.30;99.90;;;;;;4951392;29;20217;-88
2022/06/06 08:42:00;;;;;;;10.00;2.60;;;20.50;99.90;;;;;;4953753;29;20217;-88
2022/06/06 08:44:50;;;;;;;9.82;2.45;;;21.00;99.90;;;;;;4954096;28;21582;-83
2022/06/06 08:47:30;;;;;;;9.02;2.40;;;21.30;99.90;;;;;;4955126;28;20217;-86
2022/06/06 08:53:51;;;;;;;9.73;3.15;;;20.90;99.90;;;;;;4951010;28;20271;-87
2022/06/06 08:56:45;;;;;;;8.38;2.38;;;21.00;99.90;;;;;;4950942;29;20249;-86
2022/06/06 08:59:45;;;;;;;10.88;2.63;;;21.10;99.90;;;;;;4951039;28;20289;-88
2022/06/06 09:03:06;;;;;;;9.05;2.53;;;21.00;99.90;;;;;;4955071;28;20303;-86
2022/06/06 09:06:11;;;;;;;7.03;1.95;;;20.60;99.90;;;;;;4894220;29;20208;-88
2022/06/06 09:09:29;;;;;;;6.85;2.58;;;20.20;99.90;;;;;;4973651;28;20228;-86
2022/06/06 09:12:41;;;;;;;11.73;2.95;;;20.10;99.90;;;;;;4857784;29;20560;-87
2022/06/06 09:15:33;;;;;;;8.98;2.65;;;20.00;99.90;;;;;;4927119;29;20242;-91
2022/06/06 09:18:55;;;;;;;14.40;3.22;;;19.70;99.90;;;;;;4954181;29;20205;-85
2022/06/06 09:21:58;;;;;;;8.85;2.10;;;19.40;99.90;;;;;;4954420;29;20217;-90
2022/06/06 09:25:16;;;;;;;7.45;3.10;;;19.40;99.90;;;;;;4944171;29;20235;-88
2022/06/06 09:28:25;;;;;;;11.00;2.85;;;19.30;99.90;;;;;;4952453;28;20493;-87
2022/06/06 09:31:25;;;;;;;5.47;2.40;;;19.40;99.90;;;;;;4952175;29;20197;-89
2022/06/06 09:34:27;;;;;;;9.43;3.60;;;19.40;99.90;;;;;;4953381;29;20541;-87
2022/06/06 09:37:06;;;;;;;8.30;2.33;;;19.60;99.90;;;;;;4952129;28;20320;-81
2022/06/06 09:39:44;;;;;;;10.82;3.28;;;19.40;99.90;;;;;;4949721;29;20189;-88
2022/06/06 09:42:37;;;;;;;7.82;2.83;;;19.40;99.90;;;;;;4949743;29;20200;-87
2022/06/06 09:45:30;;;;;;;8.10;2.55;;;19.20;99.90;;;;;;4952277;28;20529;-90
2022/06/06 09:48:32;;;;;;;7.78;2.40;;;19.10;99.90;;;;;;4952978;29;20193;-87
2022/06/06 09:51:35;;;;;;;10.63;3.22;;;18.90;99.90;;;;;;4951127;29;20208;-82
2022/06/06 10:01:05;;;;;;;8.95;2.78;;;18.70;99.90;;;;;;4933816;29;20262;-88
2022/06/06 10:04:00;;;;;;;11.25;3.47;;;18.50;99.90;;;;;;4949288;29;20304;-91
2022/06/06 10:06:58;;;;;;;9.48;2.78;;;18.50;99.90;;;;;;4952922;29;20304;-92
2022/06/06 10:10:00;;;;;;;7.45;3.45;;;18.50;99.90;;;;;;4914348;29;20892;-88
2022/06/06 10:12:51;;;;;;;12.00;3.35;;;18.60;99.90;;;;;;4966910;28;20219;-90
2022/06/06 10:15:32;;;;;;;13.50;3.47;;;18.50;99.90;;;;;;4969904;28;20857;-86
2022/06/06 10:18:20;;;;;;;10.65;4.07;;;18.40;99.90;;;;;;4952240;28;20971;-84
2022/06/06 10:21:16;;;;;;;7.88;3.15;;;18.40;99.90;;;;;;4950397;29;20231;-83
2022/06/06 10:23:56;;;;;;;7.15;3.28;;;18.50;99.90;;;;;;4949025;29;20195;-85
2022/06/06 10:26:46;;;;;;;10.90;3.08;;;18.40;99.90;;;;;;4949908;28;20209;-83
2022/06/06 10:30:11;;;;;;;8.02;3.05;;;18.30;99.90;;;;;;4943127;29;20664;-85
2022/06/06 10:33:10;;;;;;;6.30;2.92;;;18.20;99.90;;;;;;4930905;29;20199;-84
2022/06/06 10:35:59;;;;;;;8.90;3.85;;;18.30;99.90;;;;;;4930931;29;20224;-83
2022/06/06 10:38:58;;;;;;;14.48;4.13;;;18.20;99.90;;;;;;4945744;29;20223;-84
2022/06/06 10:41:46;;;;;;;8.40;3.55;;;18.20;99.90;;;;;;4948777;29;20216;-86
2022/06/06 10:44:47;;;;;;;7.78;3.33;;;18.00;99.90;;;;;;4942003;29;20224;-83
2022/06/06 10:47:29;;;;;;;8.68;2.90;;;17.90;99.90;;;;;;4948469;28;20248;-83
2022/06/06 10:50:07;;;;;;;7.47;2.95;;;17.80;99.90;;;;;;4949834;29;20284;-83
2022/06/06 10:53:09;;;;;;;6.72;2.97;;;17.70;99.90;;;;;;4949182;28;20677;-83
2022/06/06 10:56:16;;;;;;;8.18;3.33;;;17.70;99.90;;;;;;4949764;29;20228;-84
2022/06/06 10:59:15;;;;;;;9.25;3.78;;;17.70;99.90;;;;;;4948326;28;20216;-84
2022/06/06 11:02:18;;;;;;;6.45;3.15;;;17.70;99.90;;;;;;4943130;29;20608;-87
2022/06/06 11:05:24;;;;;;;6.55;2.88;;;17.70;99.90;;;;;;4924373;29;20209;-80
2022/06/06 11:08:37;;;;;;;8.30;3.60;;;17.50;99.90;;;;;;4938907;29;20505;-83
2022/06/06 11:11:40;;;;;;;8.90;3.78;;;17.40;99.90;;;;;;4949492;29;20299;-86
2022/06/06 11:14:13;;;;;;;9.38;4.50;;;17.30;99.90;;;;;;4946286;28;20221;-83
2022/06/06 11:17:03;;;;;;;12.90;4.13;;;17.30;99.90;;;;;;4948672;29;20228;-84
2022/06/06 11:19:59;;;;;;;8.20;3.70;;;17.40;99.90;;;;;;4948559;29;20248;-86
2022/06/06 11:22:32;;;;;;;9.48;4.40;;;17.40;99.90;;;;;;4927618;29;20212;-85
2022/06/06 11:25:08;;;;;;;9.35;5.13;;;17.40;99.90;;;;;;4938694;28;20990;-84
2022/06/06 11:28:31;;;;;;;11.77;5.35;;;17.60;99.90;;;;;;4952714;29;20200;-86
2022/06/06 11:31:39;;;;;;;12.13;5.65;;;17.80;99.90;;;;;;4954354;29;20369;-82
2022/06/06 11:34:42;;;;;;;12.57;4.63;;;17.90;99.90;;;;;;4952879;28;20333;-85
2022/06/06 11:37:48;;;;;;;8.63;4.05;;;17.90;99.90;;;;;;4952473;29;20312;-85
2022/06/06 11:40:57;;;;;;;9.15;3.33;;;17.70;99.90;;;;;;4953002;29;20225;-83
2022/06/06 11:44:03;;;;;;;6.80;2.70;;;17.60;99.90;;;;;;4954366;28;20240;-84
2022/06/06 11:47:15;;;;;;;6.43;3.67;;;17.40;99.90;;;;;;4953417;29;20280;-88
2022/06/06 11:50:17;;;;;;;8.13;4.05;;;17.30;99.90;;;;;;4954406;29;20232;-84
2022/06/06 11:53:30;;;;;;;8.65;4.30;;;17.30;99.90;;;;;;4915402;28;20202;-83
2022/06/06 11:56:19;;;;;;;8.23;4.18;;;17.20;99.90;;;;;;4951282;28;20257;-82
2022/06/06 11:59:21;;;;;;;9.60;4.88;;;17.00;99.90;;;;;;4952485;29;20221;-82
2022/06/06 12:02:25;;;;;;;7.53;3.72;;;16.90;99.90;;;;;;4951227;29;20212;-88
2022/06/06 12:05:25;;;;;;;10.60;4.03;;;16.90;99.90;;;;;;4951015;28;20213;-81
2022/06/06 12:08:24;;;;;;;10.73;4.03;;;16.80;99.90;;;;;;4950365;29;20213;-81
2022/06/06 12:11:18;;;;;;;7.70;3.80;;;16.80;99.90;;;;;;4923262;29;20212;-81
2022/06/06 12:14:00;;;;;;;7.82;3.30;;;16.70;99.90;;;;;;4950327;29;20220;-79
2022/06/06 12:16:32;;;;;;;7.00;3.40;;;16.60;99.90;;;;;;4948095;28;20233;-81
2022/06/06 12:19:34;;;;;;;10.70;4.03;;;16.60;99.90;;;;;;4948480;29;20241;-80
2022/06/06 12:22:24;;;;;;;6.03;2.60;;;16.50;99.90;;;;;;4934865;29;20215;-78
2022/06/06 12:25:23;;;;;;;9.27;3.33;;;16.40;99.90;;;;;;4948718;28;20196;-77
2022/06/06 12:28:20;;;;;;;5.07;2.35;;;16.30;99.90;;;;;;4949038;29;20968;-84
2022/06/06 12:31:08;;;;;;;7.88;2.63;;;16.30;99.90;;;;;;4949992;29;20215;-82
2022/06/06 12:33:38;;;;;;;3.95;2.38;;;16.10;99.90;;;;;;4949394;28;20216;-80
2022/06/06 12:36:16;;;;;;;9.20;3.30;;;16.00;99.90;;;;;;4948480;28;20235;-78
2022/06/06 12:38:48;;;;;;;8.33;3.60;;;16.00;99.90;;;;;;4948145;28;20308;-81
2022/06/06 12:41:37;;;;;;;8.65;3.33;;;15.90;99.90;;;;;;4948519;29;20217;-78
2022/06/06 12:44:13;;;;;;;7.97;2.78;;;15.90;99.90;;;;;;4948117;28;20641;-77
2022/06/06 12:47:01;;;;;;;7.37;3.80;;;15.80;99.90;;;;;;4948486;29;20197;-79
2022/06/06 12:49:40;;;;;;;7.67;4.00;;;15.70;99.90;;;;;;4944176;28;20212;-77
2022/06/06 12:52:38;;;;;;;9.38;4.57;;;15.70;99.90;;;;;;4949089;29;20242;-80
2022/06/06 12:55:33;;;;;;;7.97;3.60;;;15.60;99.90;;;;;;4973115;23;20363;-81
2022/06/06 12:58:12;;;;;;;6.97;3.70;;;15.50;99.90;;;;;;4962288;28;20221;-79
2022/06/06 13:03:38;;;;;;;7.15;4.00;;;15.50;99.90;;;;;;4968345;28;20211;-82
2022/06/06 13:06:15;;;;;;;8.50;4.20;;;15.50;99.90;;;;;;4973875;28;20275;-88
2022/06/06 13:09:00;;;;;;;8.47;3.50;;;15.40;99.90;;;;;;4956641;28;20251;-83
2022/06/06 13:11:52;;;;;;;3.87;2.07;;;15.30;99.90;;;;;;4985900;28;20241;-83
2022/06/06 13:14:42;;;;;;;7.13;2.73;;;15.30;99.90;;;;;;4986442;28;20299;-83
2022/06/06 13:17:21;;;;;;;8.70;2.83;;;15.20;99.90;;;;;;4972319;28;20224;-85
2022/06/06 13:20:04;;;;;;;3.73;2.60;;;15.20;99.90;;;;;;4949953;29;20204;-81
2022/06/06 13:22:57;;;;;;;9.07;3.20;;;15.20;99.90;;;;;;4950876;29;20193;-82
2022/06/06 13:25:38;;;;;;;8.33;4.43;;;15.00;99.90;;;;;;4964462;28;20287;-84
2022/06/06 13:28:13;;;;;;;2.73;2.17;;;15.00;99.90;;;;;;4989502;28;20652;-88
2022/06/06 13:31:00;;;;;;;6.17;3.03;;;14.90;99.90;;;;;;4977337;28;20212;-82
2022/06/06 13:33:40;;;;;;;5.27;2.10;;;14.80;99.90;;;;;;4969978;28;20212;-89
2022/06/06 13:36:16;;;;;;;4.80;2.50;;;14.80;99.90;;;;;;4970602;28;20209;-92
2022/06/06 13:38:58;;;;;;;4.33;2.23;;;14.80;99.90;;;;;;4970775;28;20219;-85
2022/06/06 13:41:39;;;;;;;5.03;2.17;;;14.80;99.90;;;;;;4970078;28;20208;-90
2022/06/06 13:44:26;;;;;;;3.97;2.23;;;14.80;99.90;;;;;;4967492;28;20220;-91
2022/06/06 13:47:04;;;;;;;3.87;2.20;;;14.80;99.90;;;;;;4969940;28;20208;-79
2022/06/06 13:49:48;;;;;;;7.63;2.83;;;14.80;99.90;;;;;;4969084;28;20499;-89
2022/06/06 13:52:45;;;;;;;5.10;2.27;;;14.90;99.90;;;;;;4968426;28;20220;-82
2022/06/06 13:55:27;;;;;;;5.80;2.40;;;14.90;99.90;;;;;;4963240;28;20529;-82
2022/06/06 13:58:10;;;;;;;5.03;3.40;;;14.90;99.90;;;;;;4948795;29;20347;-82
2022/06/06 14:00:46;;;;;;;5.47;3.33;;;14.90;99.90;;;;;;4966253;28;20315;-85
2022/06/06 14:03:41;;;;;;;6.67;3.97;;;14.90;99.90;;;;;;4968308;28;20228;-82
2022/06/06 14:06:33;;;;;;;8.77;3.63;;;14.90;99.90;;;;;;4949647;28;20621;-83
2022/06/06 14:09:01;;;;;;;6.13;3.33;;;14.90;99.90;;;;;;4945667;29;20207;-82
2022/06/06 14:11:56;;;;;;;10.57;4.07;;;14.80;99.90;;;;;;4963718;28;20201;-81
2022/06/06 14:14:26;;;;;;;4.47;2.57;;;14.80;99.90;;;;;;4965271;28;20220;-84
2022/06/06 14:16:57;;;;;;;3.87;1.93;;;14.80;99.90;;;;;;4967518;28;20232;-81
2022/06/06 14:19:30;;;;;;;4.50;1.80;;;14.80;99.90;;;;;;4967534;28;20267;-82
2022/06/06 14:22:01;;;;;;;2.53;2.27;;;14.70;99.90;;;;;;4967513;28;20224;-83